Almond, NY

10:13 PM EDT on June 30, 2015 (GMT -0400)
Ardachy Farm | | Change Station
CLOSE
Current Station
Personal Weather Station
Location: Alfred Station, NY
Elevation: 1877 ft
Nearby Weather Stations

Elev 1877 ft 42.28 °N, 77.77 °W | Updated 36 seconds ago

Partly Cloudy
Partly Cloudy
63.5 °F
Feels Like 63.5 °F
N
2.0
Wind Variable Wind from South
Gusts 3.0 mph

Today
High -- | Low -- °F
--% Chance of Precip.
Yesterday
High -- | Low -- °F
Precip. -- in
5:37 AM 8:51 PM
Waxing Gibbous, 99% visible
Pressure 29.81 in
Visibility 10.0 miles
Clouds Few 8000 ft
Mostly Cloudy 12000 ft
Dew Point 63 °F
Humidity 99%
Rainfall in
Snow Depth Not available.
UV 0 out of 12
Pollen .60 out of 12
Air Quality Not available.
Flu Activity Sporadic
METAR KELZ 010156Z AUTO 19003KT 10SM -RA FEW080 BKN120 18/16 A2984 RMK AO2 RAB53 SLP095 P0000 T01830161

More Conditions Fewer Conditions

Pressure 29.81 in
Visibility 10.0 miles
Clouds Few 8000 ft
Mostly Cloudy 12000 ft
Dew Point 63 °F
Humidity 99%
Rainfall in
Snow Depth Not available.
UV 0 out of 12
Pollen .60 out of 12
Air Quality Not available.
Flu Activity Sporadic
METAR KELZ 010156Z AUTO 19003KT 10SM -RA FEW080 BKN120 18/16 A2984 RMK AO2 RAB53 SLP095 P0000 T01830161

More Conditions Fewer Conditions

10-Day Weather Forecast

×

Almanac

Astronomy

Jun. 30, 2015 Rise Set
Actual Time
Civil Twilight
Nautical Twilight
Astronomical Twilight
Moon
Length of Visible Light
Length of Day
Tomorrow will be .
, % of the Moon is Illuminated

Today's Extremes

State Highs State Lows

Community

WunderPhotos

Upload Photos

1,834,095 photos uploaded!

WunderBlogs® & News

Nearby

Air Quality

  Air Quality AQ Index Pollutant
Not available.

Snow Depth

Station Depth Elevation

Earthquake Activity

City Distance Mag. Time & Date
Minimum magnitude displayed is 2.5.

Coastal Water Temperatures

Place Temperature

Stations

Nearby Weather Stations

Station Location Temp. Windchill Dew Point Humidity Wind Precip. Elev Updated Type